Time;durP1;ratioP1;P1;durP2;ratioP2;P2;SDS_P1;SDS_P2;PMS_P1;PMS_P2;Temp;Humidity;BMP_temperature;BMP_pressure;BME280_temperature;BME280_humidity;BME280_pressure;Samples;Min_cycle;Max_cycle;Signal;HPM_P1;HPM_P2
2021/11/07 00:01:10;;;;;;;1.20;1.00;;;3.60;98.00;;;;;;6185334;23;20477;-68
2021/11/07 00:03:41;;;;;;;2.90;1.40;;;3.60;98.00;;;;;;6185400;23;20403;-67
2021/11/07 00:06:13;;;;;;;1.80;1.10;;;3.90;98.00;;;;;;6185340;23;20414;-68
2021/11/07 00:08:48;;;;;;;2.17;1.43;;;4.10;98.00;;;;;;6159730;23;20867;-68
2021/11/07 00:11:28;;;;;;;2.33;1.27;;;4.20;98.00;;;;;;6184782;23;20399;-67
2021/11/07 00:13:56;;;;;;;1.23;1.10;;;4.30;98.00;;;;;;6184123;23;20400;-68
2021/11/07 00:16:26;;;;;;;1.83;1.33;;;4.50;98.00;;;;;;6184615;23;20457;-67
2021/11/07 00:19:05;;;;;;;1.20;1.10;;;4.50;98.00;;;;;;6184603;23;20543;-67
2021/11/07 00:21:39;;;;;;;1.97;1.40;;;4.60;98.00;;;;;;6184399;23;20406;-68
2021/11/07 00:24:09;;;;;;;1.73;1.47;;;4.70;98.00;;;;;;6184815;23;20426;-69
2021/11/07 00:26:47;;;;;;;1.30;1.30;;;4.70;98.00;;;;;;6184759;23;20790;-68
2021/11/07 00:29:17;;;;;;;1.97;1.50;;;4.60;98.00;;;;;;6184739;23;20402;-68
2021/11/07 00:31:49;;;;;;;1.20;1.10;;;4.60;98.00;;;;;;6184845;23;20702;-68
2021/11/07 00:37:12;;;;;;;2.30;1.20;;;4.30;98.00;;;;;;6184224;23;20465;-68
2021/11/07 00:39:45;;;;;;;1.53;1.37;;;4.10;98.00;;;;;;6158847;23;20456;-67
2021/11/07 00:42:18;;;;;;;1.40;1.10;;;4.20;98.00;;;;;;6184599;23;20404;-68
2021/11/07 00:44:52;;;;;;;2.07;1.40;;;4.20;98.00;;;;;;6184507;23;20428;-68
2021/11/07 00:47:34;;;;;;;1.67;1.27;;;4.20;98.00;;;;;;6184495;23;20423;-67
2021/11/07 00:50:07;;;;;;;2.57;1.43;;;4.30;98.00;;;;;;6184747;23;20435;-68
2021/11/07 00:52:38;;;;;;;1.30;1.20;;;4.50;98.00;;;;;;6184677;23;20450;-67
2021/11/07 00:55:10;;;;;;;1.20;1.20;;;4.60;98.00;;;;;;6184597;23;20403;-68
2021/11/07 00:57:48;;;;;;;9.40;1.53;;;4.30;98.00;;;;;;6184285;23;20396;-68
2021/11/07 01:00:24;;;;;;;2.23;2.03;;;4.40;98.00;;;;;;6184303;23;20406;-68
2021/11/07 01:02:58;;;;;;;1.20;1.10;;;4.10;98.00;;;;;;6184552;23;20436;-67
2021/11/07 01:05:29;;;;;;;1.63;1.53;;;3.90;98.00;;;;;;6184605;23;20871;-67
2021/11/07 01:07:57;;;;;;;1.93;1.60;;;3.80;98.00;;;;;;6184716;23;20397;-68
2021/11/07 01:10:26;;;;;;;1.20;1.10;;;3.60;98.00;;;;;;6183740;23;20473;-68
2021/11/07 01:12:54;;;;;;;1.57;1.30;;;3.50;98.00;;;;;;6184200;23;20862;-68
2021/11/07 01:15:23;;;;;;;1.20;1.00;;;3.60;98.00;;;;;;6183811;23;21093;-68
2021/11/07 01:17:50;;;;;;;1.67;1.47;;;3.70;98.00;;;;;;6183804;23;20766;-67
2021/11/07 01:20:19;;;;;;;1.67;1.20;;;3.80;98.00;;;;;;6184711;23;20415;-67
2021/11/07 01:22:53;;;;;;;1.40;1.33;;;3.80;98.00;;;;;;6184850;23;20419;-67
2021/11/07 01:25:21;;;;;;;4.10;1.40;;;3.90;98.00;;;;;;6184045;23;20596;-67
2021/11/07 01:27:49;;;;;;;1.20;1.00;;;3.90;98.00;;;;;;6184647;23;20404;-67
2021/11/07 01:30:20;;;;;;;1.97;1.47;;;3.80;98.00;;;;;;6158680;23;20399;-67
2021/11/07 01:32:51;;;;;;;2.10;1.67;;;3.60;98.00;;;;;;6158288;23;20408;-67
2021/11/07 01:35:22;;;;;;;1.30;1.10;;;3.30;98.00;;;;;;6184015;23;20491;-67
2021/11/07 01:37:56;;;;;;;2.60;1.57;;;3.20;98.00;;;;;;6183885;23;20404;-67
2021/11/07 01:40:26;;;;;;;1.40;1.20;;;3.10;98.00;;;;;;6183977;23;20407;-67
2021/11/07 01:42:55;;;;;;;1.43;1.33;;;3.00;98.00;;;;;;6183866;23;20396;-67
2021/11/07 01:45:28;;;;;;;3.00;1.93;;;3.20;98.00;;;;;;6184128;23;20730;-66
2021/11/07 01:48:03;;;;;;;1.73;1.70;;;3.30;98.00;;;;;;6183829;23;20430;-67
2021/11/07 01:50:34;;;;;;;2.17;1.53;;;3.40;98.00;;;;;;6184210;23;20409;-68
2021/11/07 01:53:05;;;;;;;1.67;1.47;;;3.50;98.00;;;;;;6184080;23;20403;-67
2021/11/07 01:55:32;;;;;;;1.60;1.20;;;3.50;98.00;;;;;;6184055;23;20410;-67
2021/11/07 01:57:59;;;;;;;1.20;1.10;;;3.60;98.00;;;;;;6183868;23;20411;-67
2021/11/07 02:00:30;;;;;;;1.40;1.30;;;3.70;98.00;;;;;;6184362;23;20404;-67
2021/11/07 02:02:58;;;;;;;1.23;1.07;;;3.70;98.00;;;;;;6184022;23;20400;-67
2021/11/07 02:05:26;;;;;;;1.20;1.17;;;3.60;98.00;;;;;;6184074;23;20491;-67
2021/11/07 02:07:55;;;;;;;1.60;1.10;;;3.50;98.00;;;;;;6184253;23;20470;-68
2021/11/07 02:10:22;;;;;;;1.30;1.20;;;3.40;98.00;;;;;;6184453;23;20407;-67
2021/11/07 02:12:50;;;;;;;1.20;1.03;;;3.60;98.00;;;;;;6157677;23;20423;-68
2021/11/07 02:15:20;;;;;;;4.67;1.30;;;3.70;98.00;;;;;;6184258;23;20454;-67
2021/11/07 02:17:49;;;;;;;2.20;1.73;;;3.80;98.00;;;;;;6184260;23;20716;-67
2021/11/07 02:20:22;;;;;;;1.30;1.10;;;4.00;98.00;;;;;;6184165;23;20428;-67
2021/11/07 02:22:50;;;;;;;1.60;1.27;;;4.00;98.00;;;;;;6184270;23;21174;-67
2021/11/07 02:25:17;;;;;;;1.93;1.47;;;4.10;98.00;;;;;;6184256;23;20755;-67
2021/11/07 02:27:46;;;;;;;1.20;1.00;;;4.10;98.00;;;;;;6184366;23;20395;-67
2021/11/07 02:30:14;;;;;;;1.60;1.37;;;4.10;98.00;;;;;;6183889;23;20855;-67
2021/11/07 02:32:42;;;;;;;1.20;1.20;;;4.10;98.00;;;;;;6158496;23;20410;-67
2021/11/07 02:35:09;;;;;;;1.20;0.97;;;4.10;98.00;;;;;;6184221;23;20790;-67
2021/11/07 02:37:38;;;;;;;1.20;1.00;;;4.00;98.00;;;;;;6185108;23;20423;-67
2021/11/07 02:40:08;;;;;;;2.53;2.23;;;4.00;98.00;;;;;;6186109;23;20518;-67
2021/11/07 02:42:36;;;;;;;1.30;1.10;;;3.90;98.00;;;;;;6185582;23;20434;-68
2021/11/07 02:45:05;;;;;;;1.20;1.10;;;3.90;98.00;;;;;;6186241;23;20469;-67
2021/11/07 02:47:32;;;;;;;1.20;1.00;;;4.10;98.00;;;;;;6185113;23;20427;-67
2021/11/07 02:49:59;;;;;;;2.43;1.20;;;4.10;98.00;;;;;;6185402;23;20400;-67
2021/11/07 02:52:26;;;;;;;1.67;1.37;;;4.10;98.00;;;;;;6185582;23;20871;-67
2021/11/07 02:54:55;;;;;;;5.40;2.07;;;4.10;98.00;;;;;;6184828;23;20477;-68
2021/11/07 02:57:22;;;;;;;1.50;1.17;;;4.10;98.00;;;;;;6185367;23;20395;-67
2021/11/07 02:59:56;;;;;;;1.60;1.10;;;4.00;98.00;;;;;;6185652;23;20431;-67
2021/11/07 03:02:24;;;;;;;1.20;1.10;;;3.90;98.00;;;;;;6185182;23;20461;-67
2021/11/07 03:04:51;;;;;;;3.53;2.73;;;3.80;98.00;;;;;;6185257;23;20434;-67
2021/11/07 03:07:18;;;;;;;1.30;1.30;;;3.80;98.00;;;;;;6185728;23;20483;-67
2021/11/07 03:09:45;;;;;;;1.53;1.50;;;3.70;98.00;;;;;;6185060;23;20419;-67
2021/11/07 03:12:14;;;;;;;1.20;1.00;;;3.60;98.00;;;;;;6185433;23;20458;-68
2021/11/07 03:14:43;;;;;;;4.33;1.93;;;3.40;98.00;;;;;;6185555;23;20427;-67
2021/11/07 03:17:12;;;;;;;2.23;1.83;;;3.60;98.00;;;;;;6185026;23;20451;-67
2021/11/07 03:19:40;;;;;;;1.20;1.03;;;3.70;98.00;;;;;;6184428;23;20463;-67
2021/11/07 03:22:09;;;;;;;1.63;1.47;;;3.70;98.00;;;;;;6185443;23;20404;-66
2021/11/07 03:24:37;;;;;;;1.20;1.00;;;3.60;98.00;;;;;;6185297;23;20454;-67
2021/11/07 03:27:12;;;;;;;1.27;1.23;;;3.40;98.00;;;;;;6185408;23;20465;-66
2021/11/07 03:29:43;;;;;;;1.30;1.10;;;3.10;98.00;;;;;;6185158;23;20885;-67
2021/11/07 03:32:14;;;;;;;1.87;1.50;;;3.00;98.00;;;;;;6185415;23;20404;-67
2021/11/07 03:34:45;;;;;;;1.20;1.10;;;2.80;98.00;;;;;;6185015;23;20470;-67
2021/11/07 03:37:13;;;;;;;2.87;2.10;;;2.80;98.00;;;;;;6185697;23;20430;-67
2021/11/07 03:39:41;;;;;;;11.10;1.77;;;2.90;98.00;;;;;;6184880;23;20431;-67
2021/11/07 03:42:10;;;;;;;1.70;1.33;;;3.00;98.00;;;;;;6185056;23;20403;-67
2021/11/07 03:44:38;;;;;;;1.40;1.27;;;3.00;98.00;;;;;;6159682;23;20406;-67
2021/11/07 03:47:08;;;;;;;1.93;1.77;;;2.80;98.00;;;;;;6185205;23;20478;-67
2021/11/07 03:49:35;;;;;;;3.87;2.73;;;2.70;98.00;;;;;;6185147;23;20471;-67
2021/11/07 03:52:03;;;;;;;1.57;1.57;;;2.60;98.00;;;;;;6185544;23;20399;-67
2021/11/07 03:54:30;;;;;;;1.73;1.63;;;2.50;98.00;;;;;;6185229;23;20407;-67
2021/11/07 03:56:59;;;;;;;2.10;1.50;;;2.50;98.00;;;;;;6185099;23;20395;-67
2021/11/07 03:59:26;;;;;;;1.97;1.73;;;2.60;98.00;;;;;;6184771;23;20443;-67
2021/11/07 04:01:54;;;;;;;3.73;2.37;;;2.70;98.00;;;;;;6184603;23;20402;-67
2021/11/07 04:04:23;;;;;;;3.43;1.77;;;2.70;98.00;;;;;;6184763;23;20470;-67
2021/11/07 04:06:51;;;;;;;1.93;1.50;;;2.50;98.00;;;;;;6185150;23;20462;-67
2021/11/07 04:09:19;;;;;;;1.50;1.33;;;2.40;98.00;;;;;;6184957;23;20789;-66
2021/11/07 04:11:48;;;;;;;1.20;1.00;;;2.30;98.00;;;;;;6158611;23;20490;-67
2021/11/07 04:14:16;;;;;;;4.80;1.83;;;2.30;98.00;;;;;;6184652;23;20403;-67
2021/11/07 04:16:43;;;;;;;1.20;1.10;;;2.30;98.00;;;;;;6158250;23;20461;-67
2021/11/07 04:19:11;;;;;;;1.30;1.07;;;2.20;98.00;;;;;;6184405;23;20439;-67
2021/11/07 04:21:43;;;;;;;1.87;1.83;;;2.20;98.00;;;;;;6184929;23;20457;-66
2021/11/07 04:24:10;;;;;;;1.30;1.20;;;2.20;98.00;;;;;;6184799;23;20530;-68
2021/11/07 04:26:37;;;;;;;1.20;1.10;;;2.20;98.00;;;;;;6184715;23;20411;-67
2021/11/07 04:29:04;;;;;;;1.40;1.33;;;2.20;98.00;;;;;;6184763;23;20419;-67
2021/11/07 04:31:32;;;;;;;2.33;1.77;;;2.30;98.00;;;;;;6184393;23;20399;-67
2021/11/07 04:33:59;;;;;;;2.30;2.10;;;2.20;98.00;;;;;;6184786;23;20778;-67
2021/11/07 04:36:26;;;;;;;1.20;1.20;;;2.30;98.00;;;;;;6184489;23;20469;-67
2021/11/07 04:38:54;;;;;;;1.37;1.33;;;2.70;98.00;;;;;;6184206;23;20858;-67
2021/11/07 04:41:22;;;;;;;1.20;1.20;;;2.80;98.00;;;;;;6182138;23;20769;-67
2021/11/07 04:43:50;;;;;;;1.30;1.30;;;3.00;98.00;;;;;;6184718;23;20402;-67
2021/11/07 04:46:19;;;;;;;1.30;1.30;;;3.00;98.00;;;;;;6184123;23;20503;-68
2021/11/07 04:48:48;;;;;;;2.07;1.43;;;2.90;98.00;;;;;;6184650;23;20931;-67
2021/11/07 04:51:15;;;;;;;1.30;1.20;;;2.70;98.00;;;;;;6184517;23;20855;-67
2021/11/07 04:53:42;;;;;;;1.20;1.00;;;2.60;98.00;;;;;;6184585;23;20469;-67
2021/11/07 04:56:12;;;;;;;1.30;1.10;;;2.50;98.00;;;;;;6184419;23;20423;-67
2021/11/07 04:58:40;;;;;;;2.80;1.53;;;2.50;98.00;;;;;;6184303;23;20399;-67
2021/11/07 05:01:08;;;;;;;1.20;1.10;;;2.40;98.00;;;;;;6184411;23;20746;-67
2021/11/07 05:03:36;;;;;;;1.90;1.43;;;2.30;98.00;;;;;;6184464;23;20462;-67
2021/11/07 05:06:06;;;;;;;1.70;1.20;;;2.20;98.00;;;;;;6184099;23;20801;-66
2021/11/07 05:08:33;;;;;;;2.00;1.20;;;2.10;98.00;;;;;;6158080;23;20404;-67
2021/11/07 05:11:01;;;;;;;1.77;1.37;;;2.20;98.00;;;;;;6183941;23;20403;-67
2021/11/07 05:13:29;;;;;;;1.20;1.10;;;2.10;98.00;;;;;;6184447;23;20396;-67
2021/11/07 05:15:56;;;;;;;4.93;1.40;;;2.10;98.00;;;;;;6184329;23;20945;-67
2021/11/07 05:18:24;;;;;;;1.20;1.10;;;2.30;98.00;;;;;;6158465;23;20395;-67
2021/11/07 05:20:51;;;;;;;1.20;1.00;;;2.20;98.00;;;;;;6183987;23;20994;-67
2021/11/07 05:23:18;;;;;;;4.03;2.40;;;2.20;98.00;;;;;;6184323;23;20474;-67
2021/11/07 05:25:45;;;;;;;1.33;1.27;;;2.30;98.00;;;;;;6184090;23;20407;-68
2021/11/07 05:28:14;;;;;;;2.07;1.50;;;2.50;98.00;;;;;;6183929;23;20458;-67
2021/11/07 05:30:43;;;;;;;1.20;1.13;;;2.70;98.00;;;;;;6158481;23;20404;-67
2021/11/07 05:33:11;;;;;;;1.67;1.50;;;2.80;98.00;;;;;;6184143;23;20407;-68
2021/11/07 05:35:39;;;;;;;4.70;1.73;;;2.90;98.00;;;;;;6157560;23;20911;-67
2021/11/07 05:38:06;;;;;;;1.40;1.30;;;2.80;98.00;;;;;;6184163;23;20457;-67
2021/11/07 05:40:33;;;;;;;1.37;1.30;;;2.60;98.00;;;;;;6184145;23;20770;-67
2021/11/07 05:43:00;;;;;;;1.30;1.20;;;2.70;98.00;;;;;;6184279;23;20403;-67
2021/11/07 05:45:27;;;;;;;1.30;1.20;;;2.60;98.00;;;;;;6184268;23;20718;-67
2021/11/07 05:47:56;;;;;;;2.27;1.47;;;2.40;98.00;;;;;;6183642;23;20427;-68
2021/11/07 05:50:24;;;;;;;1.50;1.40;;;2.50;98.00;;;;;;6184354;23;20422;-67
2021/11/07 05:52:52;;;;;;;1.87;1.80;;;2.70;98.00;;;;;;6184087;23;20403;-68
2021/11/07 05:55:19;;;;;;;3.50;1.47;;;2.60;98.00;;;;;;6184343;23;20400;-68
2021/11/07 05:57:46;;;;;;;1.30;1.20;;;2.50;98.00;;;;;;6184057;23;20493;-68
2021/11/07 06:00:19;;;;;;;1.30;1.30;;;2.50;98.00;;;;;;6184189;23;20436;-68
2021/11/07 06:02:47;;;;;;;2.17;1.43;;;2.40;98.00;;;;;;6182345;23;20427;-68
2021/11/07 06:05:16;;;;;;;3.60;1.40;;;2.50;98.00;;;;;;6184309;23;20396;-68
2021/11/07 06:07:43;;;;;;;1.60;1.40;;;2.40;98.00;;;;;;6183951;23;20403;-68
2021/11/07 06:10:11;;;;;;;2.17;1.60;;;2.50;98.00;;;;;;6184000;23;20488;-68
2021/11/07 06:12:38;;;;;;;1.20;1.10;;;2.60;98.00;;;;;;6184871;23;20425;-68
2021/11/07 06:15:06;;;;;;;1.30;1.20;;;2.80;98.00;;;;;;6185910;23;20469;-68
2021/11/07 06:17:33;;;;;;;1.20;1.10;;;2.90;98.00;;;;;;6186379;23;20446;-68
2021/11/07 06:20:00;;;;;;;1.20;1.20;;;2.90;98.00;;;;;;6185835;23;20987;-68
2021/11/07 06:22:29;;;;;;;1.70;1.67;;;2.70;98.00;;;;;;6186277;23;20487;-68
2021/11/07 06:24:58;;;;;;;1.10;1.00;;;2.60;98.00;;;;;;6159563;23;21103;-67
2021/11/07 06:27:29;;;;;;;1.50;1.37;;;2.50;98.00;;;;;;6186071;23;20486;-68
2021/11/07 06:29:56;;;;;;;1.30;1.30;;;2.40;98.00;;;;;;6185620;23;20396;-68
2021/11/07 06:32:23;;;;;;;1.70;1.40;;;2.30;98.00;;;;;;6185582;23;20407;-68
2021/11/07 06:34:50;;;;;;;1.20;1.10;;;2.30;98.00;;;;;;6185964;23;20407;-68
2021/11/07 06:37:18;;;;;;;1.40;1.30;;;2.30;98.00;;;;;;6185946;23;20407;-67
2021/11/07 06:39:46;;;;;;;1.20;1.07;;;2.60;98.00;;;;;;6185457;23;20513;-67
2021/11/07 06:42:13;;;;;;;1.20;1.00;;;2.60;98.00;;;;;;6185744;23;20423;-68
2021/11/07 06:44:41;;;;;;;1.50;1.43;;;2.70;98.00;;;;;;6186003;23;20859;-68
2021/11/07 06:47:09;;;;;;;1.50;1.37;;;2.80;98.00;;;;;;6185472;23;20423;-68
2021/11/07 06:49:36;;;;;;;8.10;1.83;;;3.00;98.00;;;;;;6185668;23;20416;-68
2021/11/07 06:52:04;;;;;;;1.30;1.23;;;3.20;98.00;;;;;;6185509;23;20403;-68
2021/11/07 06:54:36;;;;;;;2.07;1.60;;;3.20;98.00;;;;;;6185585;23;20400;-68
2021/11/07 06:57:05;;;;;;;2.03;1.60;;;3.10;98.00;;;;;;6185441;23;20399;-68
2021/11/07 06:59:33;;;;;;;2.60;1.60;;;3.10;98.00;;;;;;6185508;23;20399;-68
2021/11/07 07:02:00;;;;;;;1.20;1.10;;;3.00;98.00;;;;;;6185565;23;20458;-68
2021/11/07 07:04:27;;;;;;;1.63;1.20;;;2.90;98.00;;;;;;6185176;23;20935;-68
2021/11/07 07:06:54;;;;;;;1.50;1.10;;;2.90;98.00;;;;;;6185583;23;20411;-68
2021/11/07 07:09:24;;;;;;;1.40;1.30;;;2.90;98.00;;;;;;6159080;23;20420;-68
2021/11/07 07:11:55;;;;;;;3.40;1.50;;;3.10;98.00;;;;;;6185690;23;20407;-68
2021/11/07 07:14:26;;;;;;;1.20;1.20;;;3.20;98.00;;;;;;6185698;23;20475;-68
2021/11/07 07:17:02;;;;;;;2.67;1.63;;;3.20;98.00;;;;;;6185776;23;20415;-68
2021/11/07 07:22:34;;;;;;;1.20;1.00;;;3.40;98.00;;;;;;6177160;23;20418;-68
2021/11/07 07:30:51;;;;;;;1.43;1.10;;;3.90;98.00;;;;;;6172258;23;20415;-68
2021/11/07 07:33:30;;;;;;;1.53;1.13;;;4.00;98.00;;;;;;6185494;23;20495;-68
2021/11/07 07:35:59;;;;;;;1.13;0.93;;;4.10;98.00;;;;;;6139710;23;20399;-68
2021/11/07 07:38:26;;;;;;;3.83;1.70;;;4.20;98.00;;;;;;6185694;23;20726;-68
2021/11/07 07:40:53;;;;;;;1.20;1.00;;;4.30;98.00;;;;;;6185695;23;20722;-68
2021/11/07 07:43:20;;;;;;;1.40;1.20;;;4.50;98.00;;;;;;6184870;23;20400;-68
2021/11/07 07:45:49;;;;;;;1.40;1.40;;;4.50;98.00;;;;;;6185480;23;20403;-68
2021/11/07 07:48:21;;;;;;;1.30;1.20;;;4.50;98.00;;;;;;6184494;23;20463;-68
2021/11/07 07:50:48;;;;;;;1.20;1.10;;;4.60;98.00;;;;;;6158668;23;20962;-68
2021/11/07 07:53:15;;;;;;;1.50;1.30;;;4.60;98.00;;;;;;6185011;23;20847;-68
2021/11/07 07:55:42;;;;;;;1.73;1.63;;;4.60;98.00;;;;;;6184873;23;20454;-68
2021/11/07 07:58:09;;;;;;;3.27;1.80;;;4.70;98.00;;;;;;6184884;23;20501;-68
2021/11/07 08:00:36;;;;;;;1.40;1.33;;;5.00;98.00;;;;;;6184595;23;20493;-69
2021/11/07 08:03:05;;;;;;;1.60;1.20;;;5.10;98.00;;;;;;6158697;23;20783;-67
2021/11/07 08:05:32;;;;;;;1.20;1.10;;;5.10;98.00;;;;;;6184970;23;20466;-68
2021/11/07 08:07:58;;;;;;;1.20;1.10;;;5.30;98.00;;;;;;6184977;23;20483;-68
2021/11/07 08:10:27;;;;;;;2.80;2.03;;;5.40;98.00;;;;;;6184946;23;20395;-68
2021/11/07 08:12:54;;;;;;;1.67;1.60;;;5.40;98.00;;;;;;6184492;23;20478;-68
2021/11/07 08:15:22;;;;;;;1.40;1.40;;;5.50;98.00;;;;;;6184386;23;20411;-68
2021/11/07 08:18:00;;;;;;;2.13;1.97;;;5.70;98.00;;;;;;6184970;23;20529;-68
2021/11/07 08:20:28;;;;;;;1.53;1.43;;;5.90;98.00;;;;;;6184858;23;20742;-68
2021/11/07 08:22:56;;;;;;;1.57;1.53;;;5.90;98.00;;;;;;6184759;23;20397;-67
2021/11/07 08:25:23;;;;;;;1.40;1.20;;;5.90;98.00;;;;;;6184825;23;20417;-68
2021/11/07 08:27:55;;;;;;;1.83;1.63;;;6.00;98.00;;;;;;6184880;23;20436;-68
2021/11/07 08:30:25;;;;;;;1.20;1.10;;;6.10;98.00;;;;;;6184231;23;20406;-68
2021/11/07 08:32:52;;;;;;;1.40;1.30;;;6.20;98.00;;;;;;6184571;23;20459;-68
2021/11/07 08:35:21;;;;;;;2.43;1.20;;;6.30;98.00;;;;;;6184576;23;20405;-68
2021/11/07 08:37:53;;;;;;;1.20;1.03;;;6.40;98.00;;;;;;6184843;23;20402;-68
2021/11/07 08:40:27;;;;;;;1.90;1.50;;;6.40;98.00;;;;;;6184789;23;20429;-68
2021/11/07 08:42:59;;;;;;;1.20;1.00;;;6.50;98.00;;;;;;6160178;23;20401;-68
2021/11/07 09:02:33;;;;;;;2.13;1.57;;;6.90;98.00;;;;;;6182562;23;20449;-67
2021/11/07 09:05:04;;;;;;;2.33;1.40;;;6.90;98.00;;;;;;6182581;23;20403;-68
2021/11/07 09:07:53;;;;;;;1.20;1.10;;;7.00;98.00;;;;;;6183604;23;20462;-67
2021/11/07 09:10:24;;;;;;;1.30;1.10;;;7.10;98.00;;;;;;6182464;23;20416;-68
2021/11/07 09:12:52;;;;;;;1.37;1.37;;;7.10;98.00;;;;;;6183485;23;21002;-69
2021/11/07 09:15:22;;;;;;;1.20;1.10;;;7.00;98.00;;;;;;6182912;23;20405;-68
2021/11/07 09:17:50;;;;;;;1.30;1.20;;;7.00;98.00;;;;;;6183272;23;20404;-67
2021/11/07 09:20:23;;;;;;;1.20;1.00;;;7.10;98.00;;;;;;6182941;23;20426;-68
2021/11/07 09:22:53;;;;;;;1.60;1.13;;;7.20;98.00;;;;;;6183467;23;20915;-68
2021/11/07 09:25:24;;;;;;;1.20;0.93;;;7.20;98.00;;;;;;6183007;23;20398;-68
2021/11/07 09:27:55;;;;;;;1.20;1.00;;;7.20;98.00;;;;;;6183295;23;20760;-69
2021/11/07 09:30:26;;;;;;;2.10;1.50;;;7.30;98.00;;;;;;6183023;23;20771;-69
2021/11/07 09:33:00;;;;;;;1.20;1.00;;;7.50;98.00;;;;;;6182972;23;20428;-69
2021/11/07 09:35:40;;;;;;;1.20;1.03;;;7.60;98.00;;;;;;6183270;23;20701;-69
2021/11/07 09:38:10;;;;;;;1.20;1.10;;;7.70;98.00;;;;;;6181380;23;20871;-68
2021/11/07 09:40:44;;;;;;;1.20;1.00;;;7.90;98.00;;;;;;6183142;23;20518;-69
2021/11/07 09:43:18;;;;;;;1.30;1.10;;;8.10;98.00;;;;;;6182973;23;20463;-68
2021/11/07 09:46:00;;;;;;;1.20;1.00;;;8.30;98.00;;;;;;6183689;23;20457;-67
2021/11/07 09:48:30;;;;;;;1.20;1.00;;;8.50;98.00;;;;;;6185438;23;20485;-68
2021/11/07 09:50:58;;;;;;;1.20;1.00;;;8.50;98.00;;;;;;6184757;23;20392;-68
2021/11/07 09:53:26;;;;;;;1.87;1.10;;;8.50;98.00;;;;;;6185191;23;20400;-68
2021/11/07 09:55:55;;;;;;;1.20;0.90;;;8.50;98.00;;;;;;6185010;23;20411;-69
2021/11/07 09:58:22;;;;;;;1.40;1.03;;;8.60;98.00;;;;;;6184940;23;20484;-68
2021/11/07 10:00:52;;;;;;;1.67;1.40;;;8.60;98.00;;;;;;6159761;23;20428;-68
2021/11/07 10:03:21;;;;;;;1.80;1.47;;;8.70;98.00;;;;;;6184879;23;20922;-68
2021/11/07 10:05:51;;;;;;;1.20;1.00;;;8.70;98.00;;;;;;6159322;23;20696;-69
2021/11/07 10:08:20;;;;;;;2.30;1.40;;;8.70;98.00;;;;;;6185230;23;20399;-69
2021/11/07 10:10:54;;;;;;;1.40;1.20;;;8.80;98.00;;;;;;6184838;23;20404;-70
2021/11/07 10:13:25;;;;;;;1.30;1.17;;;8.80;98.00;;;;;;6185132;23;20409;-70
2021/11/07 10:16:03;;;;;;;1.20;1.00;;;8.80;98.00;;;;;;6184962;23;20407;-69
2021/11/07 10:18:36;;;;;;;1.20;1.10;;;8.80;98.00;;;;;;6185165;23;20401;-68
2021/11/07 10:21:14;;;;;;;3.03;1.80;;;8.70;98.00;;;;;;6185546;23;20428;-68
2021/11/07 10:23:44;;;;;;;1.50;1.20;;;8.70;98.00;;;;;;6185743;23;20400;-68
2021/11/07 10:26:16;;;;;;;1.70;1.40;;;8.60;98.00;;;;;;6185789;23;20473;-68
2021/11/07 10:28:54;;;;;;;1.20;1.00;;;8.60;98.00;;;;;;6185492;23;20458;-68
2021/11/07 10:31:26;;;;;;;1.30;1.20;;;8.70;98.00;;;;;;6185965;23;20423;-68
2021/11/07 10:34:13;;;;;;;1.20;1.10;;;8.70;98.00;;;;;;6184996;23;20406;-68
2021/11/07 10:39:58;;;;;;;1.20;1.10;;;8.80;98.00;;;;;;6148535;23;20421;-68
2021/11/07 10:45:41;;;;;;;1.20;1.10;;;8.90;98.00;;;;;;6146988;23;20424;-68
2021/11/07 10:48:20;;;;;;;1.40;1.10;;;9.10;98.00;;;;;;6185654;23;20433;-68
2021/11/07 10:53:42;;;;;;;1.63;1.10;;;9.30;98.00;;;;;;6195520;23;20401;-68
2021/11/07 10:56:10;;;;;;;1.20;1.10;;;9.40;98.00;;;;;;6185910;23;20404;-68
2021/11/07 10:58:40;;;;;;;1.80;1.30;;;9.40;98.00;;;;;;6185260;23;20396;-68
2021/11/07 11:01:10;;;;;;;1.30;1.20;;;9.40;98.00;;;;;;6185382;23;20455;-68
2021/11/07 11:03:43;;;;;;;1.30;1.10;;;9.50;98.00;;;;;;6185417;23;20408;-68
2021/11/07 11:06:12;;;;;;;1.30;1.20;;;9.60;98.00;;;;;;6185261;23;20495;-69
2021/11/07 11:08:42;;;;;;;1.20;1.00;;;9.70;98.00;;;;;;6185320;23;20447;-68
2021/11/07 11:11:14;;;;;;;1.20;1.00;;;9.80;98.00;;;;;;6160086;23;20477;-68
2021/11/07 11:13:49;;;;;;;1.23;1.03;;;9.80;98.00;;;;;;6185317;23;20438;-69
2021/11/07 11:25:01;;;;;;;1.60;1.20;;;10.00;98.00;;;;;;6195769;23;20768;-68
2021/11/07 11:27:43;;;;;;;2.00;1.27;;;10.00;98.00;;;;;;6185471;23;20402;-69
2021/11/07 11:30:26;;;;;;;1.20;1.07;;;10.10;98.00;;;;;;6185448;23;20419;-69
2021/11/07 11:32:57;;;;;;;1.70;1.30;;;10.20;98.00;;;;;;6185206;23;20405;-68
2021/11/07 11:35:29;;;;;;;1.37;1.33;;;10.50;98.00;;;;;;6185121;23;20536;-68
2021/11/07 11:38:07;;;;;;;1.70;1.03;;;10.70;98.00;;;;;;6184809;23;20431;-68
2021/11/07 11:40:44;;;;;;;1.30;1.10;;;10.90;98.00;;;;;;6185229;23;20415;-68
2021/11/07 11:43:15;;;;;;;1.20;1.00;;;11.40;98.00;;;;;;6184798;23;21082;-68
2021/11/07 11:45:45;;;;;;;1.20;1.10;;;11.40;98.00;;;;;;6184937;23;20866;-68
2021/11/07 11:48:41;;;;;;;2.53;1.50;;;11.50;98.00;;;;;;6153688;23;20493;-68
2021/11/07 11:51:28;;;;;;;1.50;1.40;;;11.30;98.00;;;;;;6155392;23;20393;-68
2021/11/07 11:57:31;;;;;;;1.40;1.40;;;11.20;98.00;;;;;;6096115;23;20498;-69
2021/11/07 12:00:23;;;;;;;1.30;1.10;;;11.00;98.00;;;;;;6158284;23;20411;-69
2021/11/07 12:02:56;;;;;;;1.40;1.23;;;11.00;98.00;;;;;;6156614;23;20432;-69
2021/11/07 12:05:34;;;;;;;1.20;1.00;;;10.90;98.00;;;;;;6155201;23;20407;-69
2021/11/07 12:08:21;;;;;;;1.30;1.10;;;10.90;98.00;;;;;;6155171;23;20399;-68
2021/11/07 12:10:55;;;;;;;1.40;1.23;;;10.90;98.00;;;;;;6155507;23;20468;-68
2021/11/07 12:13:37;;;;;;;1.73;1.10;;;10.90;98.00;;;;;;6155254;23;20436;-68
2021/11/07 12:16:11;;;;;;;1.20;1.10;;;11.00;98.00;;;;;;6155380;23;20449;-68
2021/11/07 12:18:59;;;;;;;2.47;1.57;;;11.10;98.00;;;;;;6155294;23;20400;-69
2021/11/07 12:21:58;;;;;;;1.30;1.10;;;11.20;98.00;;;;;;6155595;23;20432;-69
2021/11/07 12:24:27;;;;;;;1.20;1.20;;;11.20;98.00;;;;;;6155294;23;20400;-68
2021/11/07 12:27:20;;;;;;;1.20;1.00;;;11.20;98.00;;;;;;6155681;23;20416;-68
2021/11/07 12:29:48;;;;;;;1.67;1.20;;;11.30;98.00;;;;;;6154710;23;20404;-69
2021/11/07 12:32:16;;;;;;;1.73;1.27;;;11.30;98.00;;;;;;6155283;23;20605;-69
2021/11/07 12:34:57;;;;;;;1.53;1.47;;;11.30;98.00;;;;;;6154896;23;20695;-68
2021/11/07 12:40:47;;;;;;;1.50;1.40;;;11.30;98.00;;;;;;6121204;23;20412;-68
2021/11/07 12:43:18;;;;;;;1.30;1.10;;;11.30;98.00;;;;;;6164299;23;20441;-69
2021/11/07 12:45:47;;;;;;;1.37;1.10;;;11.40;98.00;;;;;;6153541;23;20465;-69
2021/11/07 12:48:36;;;;;;;1.47;1.47;;;11.50;98.00;;;;;;6182331;23;20424;-69
2021/11/07 12:51:05;;;;;;;1.30;1.20;;;11.60;98.00;;;;;;6184393;23;20968;-68
2021/11/07 12:53:56;;;;;;;1.20;1.20;;;11.80;98.00;;;;;;6184175;23;20492;-68
2021/11/07 12:56:55;;;;;;;1.30;1.20;;;11.80;98.00;;;;;;6184755;23;20404;-68
2021/11/07 12:59:28;;;;;;;1.20;0.90;;;11.70;98.00;;;;;;6035165;23;20413;-68
2021/11/07 13:02:08;;;;;;;1.50;1.10;;;11.70;98.00;;;;;;6157389;23;21012;-68
2021/11/07 13:04:43;;;;;;;1.20;1.07;;;11.70;98.00;;;;;;6184294;23;20420;-68
2021/11/07 13:07:12;;;;;;;1.60;1.33;;;11.60;98.00;;;;;;6184175;23;20406;-68
2021/11/07 13:09:47;;;;;;;1.40;1.23;;;11.50;98.00;;;;;;6184320;23;20442;-68
2021/11/07 13:12:22;;;;;;;1.70;1.37;;;11.40;98.00;;;;;;6184216;23;20451;-68
2021/11/07 13:15:08;;;;;;;1.20;1.03;;;11.50;98.00;;;;;;6184304;23;20422;-68
2021/11/07 13:17:58;;;;;;;2.03;1.33;;;11.40;98.00;;;;;;6157811;23;20429;-69
2021/11/07 13:23:46;;;;;;;1.60;1.33;;;11.50;98.00;;;;;;6092524;23;20569;-68
2021/11/07 13:26:32;;;;;;;1.50;1.40;;;11.50;98.00;;;;;;6176453;23;20423;-68
2021/11/07 13:29:09;;;;;;;1.30;1.30;;;11.50;98.00;;;;;;6184202;23;20457;-68
2021/11/07 13:31:46;;;;;;;1.30;1.10;;;11.40;98.00;;;;;;6184330;23;20406;-68
2021/11/07 13:34:18;;;;;;;1.63;1.30;;;11.50;98.00;;;;;;6184236;23;20400;-68
2021/11/07 13:36:46;;;;;;;1.20;1.10;;;11.50;98.00;;;;;;6184444;23;20407;-69
2021/11/07 13:39:22;;;;;;;3.20;1.40;;;11.50;98.00;;;;;;6184581;23;20400;-69
2021/11/07 13:41:55;;;;;;;2.87;1.50;;;11.50;98.00;;;;;;6184566;23;20428;-68
2021/11/07 13:44:25;;;;;;;1.50;1.40;;;11.40;98.00;;;;;;6184706;23;20417;-69
2021/11/07 13:46:55;;;;;;;1.20;1.00;;;11.10;98.00;;;;;;6184296;23;21143;-68
2021/11/07 13:49:23;;;;;;;1.20;1.00;;;10.80;98.00;;;;;;6184580;23;20421;-68
2021/11/07 13:51:53;;;;;;;1.20;1.00;;;10.60;98.00;;;;;;6184179;23;20403;-69
2021/11/07 13:54:21;;;;;;;1.20;1.10;;;10.40;98.00;;;;;;6183996;23;20461;-68
2021/11/07 13:56:49;;;;;;;1.20;1.07;;;10.30;98.00;;;;;;6184036;23;20458;-68
2021/11/07 13:59:35;;;;;;;1.10;0.90;;;10.20;98.00;;;;;;6193376;23;20898;-68
2021/11/07 14:02:10;;;;;;;1.20;1.10;;;11.00;98.00;;;;;;6183694;23;20439;-68
2021/11/07 14:04:43;;;;;;;1.20;1.10;;;11.80;98.00;;;;;;6184079;23;20729;-68
2021/11/07 14:07:20;;;;;;;1.20;1.10;;;12.40;98.00;;;;;;6184063;23;20404;-69
2021/11/07 14:10:09;;;;;;;1.20;1.00;;;12.20;98.00;;;;;;6183799;23;20405;-69
2021/11/07 14:12:41;;;;;;;1.20;1.00;;;11.70;98.00;;;;;;6184066;23;20403;-68